createdAt,value
2018-10-11T11:48:20.023Z,8.50
2018-10-11T11:49:19.989Z,9.70
2018-10-11T11:50:19.993Z,10.00
2018-10-11T11:51:19.960Z,9.40
2018-10-11T11:52:19.943Z,9.10
2018-10-11T11:53:19.931Z,9.10
2018-10-11T11:54:19.917Z,8.80
2018-10-11T11:55:19.916Z,9.50
2018-10-11T11:56:19.892Z,9.40
2018-10-11T11:57:19.878Z,9.90
2018-10-11T11:58:19.874Z,9.30
2018-10-11T11:59:19.850Z,9.00
2018-10-11T12:00:19.856Z,9.80
2018-10-11T12:01:19.835Z,9.40
2018-10-11T12:02:19.813Z,9.90
2018-10-11T12:03:19.800Z,9.90
2018-10-11T12:04:19.787Z,9.20
2018-10-11T12:05:19.779Z,9.20
2018-10-11T12:06:19.774Z,8.70
2018-10-11T12:07:19.754Z,8.20
2018-10-11T12:08:19.735Z,8.60
2018-10-11T12:09:19.726Z,8.00
2018-10-11T12:10:19.755Z,8.20
2018-10-11T12:11:19.722Z,8.10
2018-10-11T12:12:19.688Z,8.90
2018-10-11T12:13:19.684Z,8.90
2018-10-11T12:14:19.676Z,8.90
2018-10-11T12:15:19.656Z,9.10
2018-10-11T12:16:19.681Z,8.70
2018-10-11T12:17:19.631Z,9.00
2018-10-11T12:18:19.624Z,8.50
2018-10-11T12:19:19.606Z,9.30
2018-10-11T12:20:19.598Z,9.20
2018-10-11T12:21:19.589Z,8.70
2018-10-11T12:22:19.591Z,9.40
2018-10-11T12:23:19.561Z,9.50
2018-10-11T12:24:19.557Z,9.20
2018-10-11T12:25:19.541Z,10.00
2018-10-11T12:26:19.538Z,9.90
2018-10-11T12:27:19.540Z,10.20
2018-10-11T12:28:19.569Z,9.70
2018-10-11T12:29:19.496Z,9.60
2018-10-11T12:30:19.488Z,10.20
2018-10-11T12:31:19.476Z,9.50
2018-10-11T12:32:19.467Z,10.10
2018-10-11T12:33:19.470Z,9.10
2018-10-11T12:34:19.439Z,9.10
2018-10-11T12:35:19.512Z,9.30
2018-10-11T12:36:19.431Z,9.90
2018-10-11T12:37:19.408Z,10.40
2018-10-11T12:38:19.418Z,9.80
2018-10-11T12:39:19.383Z,10.40
2018-10-11T12:40:19.377Z,9.90
2018-10-11T12:41:19.363Z,10.30
2018-10-11T12:42:19.359Z,11.20
2018-10-11T12:43:19.342Z,10.40
2018-10-11T12:44:19.370Z,10.30
2018-10-11T12:45:19.380Z,9.60
2018-10-11T12:46:19.315Z,9.70
2018-10-11T12:47:19.298Z,9.70
2018-10-11T12:48:19.288Z,9.30
2018-10-11T12:49:19.287Z,9.10
2018-10-11T12:50:19.289Z,10.00
2018-10-11T12:51:19.256Z,9.50
2018-10-11T12:52:19.246Z,10.00
2018-10-11T12:53:19.235Z,9.70
2018-10-11T12:54:19.273Z,10.10
2018-10-11T12:55:19.242Z,9.10
2018-10-11T12:56:19.309Z,9.70
2018-10-11T12:57:20.844Z,9.40
2018-10-11T12:58:19.191Z,9.50
2018-10-11T12:59:19.174Z,9.40
2018-10-11T13:00:19.167Z,9.60
2018-10-11T13:01:21.128Z,9.90
2018-10-11T13:02:19.155Z,9.90
2018-10-11T13:03:19.186Z,9.40
2018-10-11T13:04:19.127Z,8.60
2018-10-11T13:05:19.112Z,8.40
2018-10-11T13:06:19.104Z,8.60
2018-10-11T13:07:19.115Z,8.50
2018-10-11T13:08:19.080Z,8.80
2018-10-11T13:09:19.144Z,9.50
2018-10-11T13:10:19.057Z,8.60
2018-10-11T13:11:19.046Z,8.20
2018-10-11T13:12:19.038Z,7.80
2018-10-11T13:13:19.037Z,8.00
2018-10-11T13:14:19.014Z,8.00
2018-10-11T13:15:19.008Z,8.10
2018-10-11T13:16:18.996Z,8.70
2018-10-11T13:17:18.984Z,8.00
2018-10-11T13:18:18.989Z,8.30
2018-10-11T13:19:18.960Z,8.20
2018-10-11T13:20:18.947Z,7.60
2018-10-11T13:21:18.935Z,8.10
2018-10-11T13:22:18.927Z,7.70
2018-10-11T13:23:18.928Z,7.70
2018-10-11T13:24:18.904Z,8.80
2018-10-11T13:25:18.893Z,8.20
2018-10-11T13:26:18.884Z,8.10
2018-10-11T13:27:18.871Z,8.20
2018-10-11T13:28:18.882Z,8.30
2018-10-11T13:29:18.852Z,7.90
2018-10-11T13:30:18.839Z,7.80
2018-10-11T13:31:18.825Z,8.00
2018-10-11T13:32:18.816Z,7.90
2018-10-11T13:33:18.801Z,7.80
2018-10-11T13:34:18.820Z,7.90
2018-10-11T13:35:18.840Z,7.30
2018-10-11T13:36:18.776Z,8.60
2018-10-11T13:37:18.760Z,8.00
2018-10-11T13:38:18.750Z,8.90
2018-10-11T13:39:18.738Z,8.00
2018-10-11T13:40:18.748Z,8.50
2018-10-11T13:41:18.803Z,7.70
2018-10-11T13:42:18.705Z,7.60
2018-10-11T13:43:18.691Z,7.80
2018-10-11T13:44:18.720Z,7.70
2018-10-11T13:45:18.669Z,8.00
2018-10-11T13:46:18.658Z,7.50
2018-10-11T13:47:18.657Z,8.00
2018-10-11T13:48:18.637Z,8.20
2018-10-11T13:49:18.625Z,7.40
2018-10-11T13:50:18.626Z,7.90
2018-10-11T13:51:18.600Z,7.90
2018-10-11T13:52:21.684Z,7.50
2018-10-11T13:53:21.324Z,7.70
2018-10-11T13:54:18.602Z,7.40
2018-10-11T13:55:18.553Z,7.80
2018-10-11T13:56:18.542Z,8.20
2018-10-11T13:57:20.895Z,7.40
2018-10-11T13:58:18.519Z,6.80
2018-10-11T13:59:18.506Z,7.50
2018-10-11T14:00:18.513Z,7.50
2018-10-11T14:01:18.486Z,7.00
2018-10-11T14:02:18.473Z,7.50
2018-10-11T14:03:18.461Z,7.30
2018-10-11T14:04:18.452Z,7.30
2018-10-11T14:05:18.452Z,6.90
2018-10-11T14:06:18.427Z,6.70
2018-10-11T14:07:18.415Z,6.90
2018-10-11T14:08:18.408Z,7.70
2018-10-11T14:09:18.395Z,7.00
2018-10-11T14:10:18.402Z,7.20
2018-10-11T14:11:18.371Z,7.60
2018-10-11T14:12:18.359Z,7.70
2018-10-11T14:13:20.485Z,7.40
2018-10-11T14:14:18.332Z,7.70
2018-10-11T14:15:18.333Z,7.60
2018-10-11T14:16:18.307Z,7.70
2018-10-11T14:17:18.304Z,7.00
2018-10-11T14:18:18.284Z,7.10
2018-10-11T14:19:18.270Z,7.20
2018-10-11T14:20:18.277Z,7.30
2018-10-11T14:21:18.247Z,7.30
2018-10-11T14:22:18.238Z,6.80
2018-10-11T14:23:18.232Z,7.20
2018-10-11T14:24:18.236Z,7.30
2018-10-11T14:25:18.223Z,7.30
2018-10-11T14:26:18.195Z,6.80
2018-10-11T14:27:18.176Z,7.10
2018-10-11T14:28:18.163Z,6.70
2018-10-11T14:29:18.157Z,6.60
2018-10-11T14:30:18.142Z,7.00
2018-10-11T14:31:18.150Z,7.40
2018-10-11T14:32:18.117Z,7.30
2018-10-11T14:33:18.110Z,7.00
2018-10-11T14:34:18.096Z,6.90
2018-10-11T14:35:18.086Z,6.60
2018-10-11T14:36:18.124Z,6.90
2018-10-11T14:37:18.140Z,6.60
2018-10-11T14:38:18.053Z,6.60
2018-10-11T14:39:18.042Z,6.10
2018-10-11T14:40:18.026Z,6.30
2018-10-11T14:41:18.016Z,6.60
2018-10-11T14:42:18.026Z,6.10
2018-10-11T14:43:18.023Z,5.90
2018-10-11T14:44:17.979Z,6.10
2018-10-11T14:45:17.968Z,6.40
2018-10-11T14:46:17.959Z,6.20
2018-10-11T14:47:17.959Z,6.50
2018-10-11T14:48:17.938Z,6.20
2018-10-11T14:49:17.925Z,6.20
2018-10-11T14:50:17.912Z,5.80
2018-10-11T14:51:17.925Z,5.30
2018-10-11T14:52:17.910Z,5.90
2018-10-11T14:53:17.878Z,5.80
2018-10-11T14:54:17.872Z,6.00
2018-10-11T14:55:17.850Z,6.00
2018-10-11T14:56:17.846Z,6.10
2018-10-11T14:57:17.897Z,5.60
2018-10-11T14:58:17.818Z,5.80
2018-10-11T14:59:17.804Z,5.90
2018-10-11T15:00:17.807Z,6.00
2018-10-11T15:01:17.783Z,5.90
2018-10-11T15:02:17.769Z,6.00
2018-10-11T15:03:17.870Z,6.20
2018-10-11T15:04:17.751Z,6.10
2018-10-11T15:05:17.800Z,6.30
2018-10-11T15:06:17.722Z,6.60
2018-10-11T15:07:17.713Z,6.40
2018-10-11T15:08:17.716Z,6.60
2018-10-11T15:09:17.696Z,6.30
2018-10-11T15:10:17.681Z,6.90
2018-10-11T15:11:17.719Z,6.30
2018-10-11T15:12:17.667Z,6.10
2018-10-11T15:13:17.644Z,6.50
2018-10-11T15:14:17.628Z,6.40
2018-10-11T15:15:17.616Z,6.80
2018-10-11T15:16:17.603Z,6.60
2018-10-11T15:17:17.608Z,6.50
2018-10-11T15:18:17.579Z,6.90
2018-10-11T15:19:17.565Z,7.20
2018-10-11T15:20:17.554Z,7.90
2018-10-11T15:21:17.543Z,7.60
2018-10-11T15:22:17.544Z,7.60
2018-10-11T15:23:17.517Z,8.30
2018-10-11T15:24:17.505Z,7.60
2018-10-11T15:25:17.497Z,8.30
2018-10-11T15:26:17.481Z,7.60
2018-10-11T15:27:17.513Z,7.90
2018-10-11T15:28:17.455Z,8.00
2018-10-11T15:29:17.466Z,8.10
2018-10-11T15:30:17.432Z,8.40
2018-10-11T15:31:17.418Z,7.20
2018-10-11T15:32:17.413Z,8.30
2018-10-11T15:33:17.406Z,7.50
2018-10-11T15:34:17.382Z,7.40
2018-10-11T15:35:17.374Z,7.70
2018-10-11T15:36:17.358Z,8.20
2018-10-11T15:37:17.367Z,8.60
2018-10-11T15:38:17.332Z,8.60
2018-10-11T15:39:17.321Z,8.30
2018-10-11T15:40:17.308Z,8.40
2018-10-11T15:41:17.295Z,11.90
2018-10-11T15:42:17.282Z,10.00
2018-10-11T15:43:17.282Z,9.80
2018-10-11T15:44:17.262Z,9.40
2018-10-11T15:45:17.248Z,10.70
2018-10-11T15:46:17.232Z,9.80
2018-10-11T15:47:17.218Z,9.70
2018-10-11T15:48:17.217Z,9.00
2018-10-11T15:49:17.192Z,9.50
2018-10-11T15:50:17.177Z,9.00
2018-10-11T15:51:17.167Z,9.40
2018-10-11T15:52:17.186Z,9.90
2018-10-11T15:53:17.155Z,9.40
2018-10-11T15:54:17.129Z,9.20
2018-10-11T15:55:17.114Z,9.60
2018-10-11T15:56:17.105Z,9.80
2018-10-11T15:57:17.090Z,10.10
2018-10-11T15:58:17.095Z,9.10
2018-10-11T15:59:17.067Z,9.40
2018-10-11T16:00:17.062Z,9.20
2018-10-11T16:01:17.039Z,9.50
2018-10-11T16:02:17.028Z,9.80
2018-10-11T16:03:17.051Z,9.80
2018-10-11T16:04:16.997Z,10.10
2018-10-11T16:05:16.990Z,9.50
2018-10-11T16:06:16.978Z,9.70
2018-10-11T16:07:16.964Z,9.70
2018-10-11T16:08:16.951Z,9.70
2018-10-11T16:09:17.088Z,12.10
2018-10-11T16:10:16.924Z,10.10
2018-10-11T16:11:16.910Z,10.20
2018-10-11T16:12:16.895Z,10.70
2018-10-11T16:13:16.884Z,10.10
2018-10-11T16:14:16.883Z,9.80
2018-10-11T16:15:16.857Z,9.80
2018-10-11T16:16:16.848Z,9.90
2018-10-11T16:17:16.835Z,10.10
2018-10-11T16:18:16.821Z,9.90
2018-10-11T16:19:16.822Z,10.10
2018-10-11T16:20:16.791Z,9.80
2018-10-11T16:21:16.786Z,9.80
2018-10-11T16:22:16.769Z,9.70
2018-10-11T16:23:16.755Z,9.50
2018-10-11T16:24:16.759Z,10.00
2018-10-11T16:25:16.732Z,9.90
2018-10-11T16:26:16.715Z,10.10
2018-10-11T16:27:16.698Z,9.90
2018-10-11T16:28:16.688Z,9.70
2018-10-11T16:29:16.676Z,10.10
2018-10-11T16:30:16.677Z,10.10
2018-10-11T16:31:16.650Z,9.10
2018-10-11T16:32:16.676Z,9.90
2018-10-11T16:33:16.621Z,9.70
2018-10-11T16:34:16.607Z,9.90
2018-10-11T16:35:16.609Z,9.60
2018-10-11T16:36:16.583Z,9.90
2018-10-11T16:37:16.567Z,9.70
2018-10-11T16:38:16.555Z,9.90
2018-10-11T16:39:16.585Z,9.70
2018-10-11T16:40:16.543Z,9.20
2018-10-11T16:41:16.513Z,9.30
2018-10-11T16:42:16.499Z,9.40
2018-10-11T16:43:16.485Z,8.90
2018-10-11T16:44:16.470Z,9.20
2018-10-11T16:45:16.478Z,9.50
2018-10-11T16:46:16.445Z,9.70
2018-10-11T16:47:16.433Z,9.50
2018-10-11T16:48:16.420Z,9.60
2018-10-11T16:49:16.412Z,9.60
2018-10-11T16:50:16.425Z,9.60
2018-10-11T16:51:16.376Z,9.80
2018-10-11T16:52:16.369Z,9.80
2018-10-11T16:53:16.356Z,10.50
2018-10-11T16:54:16.338Z,9.80
2018-10-11T16:55:16.341Z,9.70
2018-10-11T16:56:16.308Z,9.70
2018-10-11T16:57:16.297Z,10.20
2018-10-11T16:58:16.280Z,10.10
2018-10-11T16:59:16.279Z,10.60
2018-10-11T17:00:16.280Z,10.30
2018-10-11T17:01:16.240Z,10.80
2018-10-11T17:02:16.223Z,10.20
2018-10-11T17:03:16.207Z,10.10
2018-10-11T17:04:16.339Z,10.40
2018-10-11T17:05:16.199Z,10.10
2018-10-11T17:06:16.172Z,10.70
2018-10-11T17:07:16.153Z,10.20
2018-10-11T17:08:16.139Z,10.40
2018-10-11T17:09:16.126Z,10.70
2018-10-11T17:10:16.131Z,10.10
2018-10-11T17:11:16.094Z,10.50
2018-10-11T17:12:16.091Z,10.60
2018-10-11T17:13:16.070Z,10.10
2018-10-11T17:14:16.054Z,10.10
2018-10-11T17:15:16.053Z,10.50
2018-10-11T17:16:16.022Z,10.20
2018-10-11T17:17:16.022Z,10.30
2018-10-11T17:18:16.007Z,10.50
2018-10-11T17:19:15.979Z,10.20
2018-10-11T17:20:15.983Z,10.50
2018-10-11T17:21:15.954Z,10.00
2018-10-11T17:22:15.947Z,10.90
2018-10-11T17:23:15.933Z,10.40
2018-10-11T17:24:15.908Z,11.40
2018-10-11T17:25:15.910Z,10.70
2018-10-11T17:26:15.880Z,10.70
2018-10-11T17:27:15.865Z,10.50
2018-10-11T17:28:15.860Z,10.70
2018-10-11T17:29:15.838Z,10.30
2018-10-11T17:30:15.840Z,10.20
2018-10-11T17:31:15.812Z,10.40
2018-10-11T17:32:15.793Z,10.30
2018-10-11T17:33:15.783Z,10.40
2018-10-11T17:34:15.764Z,10.40
2018-10-11T17:35:15.785Z,10.00
2018-10-11T17:36:15.742Z,10.00
2018-10-11T17:37:15.729Z,11.00
2018-10-11T17:38:15.713Z,9.90
2018-10-11T17:39:15.693Z,10.50
2018-10-11T17:40:15.700Z,11.60
2018-10-11T17:41:15.664Z,10.70
2018-10-11T17:42:15.697Z,10.90
2018-10-11T17:43:15.631Z,10.70
2018-10-11T17:44:15.621Z,10.60
2018-10-11T17:45:15.605Z,11.10
2018-10-11T17:46:15.608Z,11.20
2018-10-11T17:47:15.576Z,11.40
2018-10-11T17:48:15.560Z,11.50
2018-10-11T17:49:15.545Z,11.20
2018-10-11T17:50:15.585Z,11.90
2018-10-11T17:51:15.552Z,11.70
2018-10-11T17:52:15.501Z,12.20
2018-10-11T17:53:15.485Z,12.30
2018-10-11T17:54:15.471Z,11.50
2018-10-11T17:55:15.456Z,12.80
2018-10-11T17:56:24.357Z,13.00
2018-10-11T17:57:15.428Z,13.90
2018-10-11T17:58:15.412Z,12.60
2018-10-11T17:59:15.400Z,13.00
2018-10-11T18:00:15.384Z,12.60
2018-10-11T18:01:15.367Z,12.50
2018-10-11T18:02:15.369Z,13.20
2018-10-11T18:03:15.364Z,12.90
2018-10-11T18:04:15.320Z,13.30
2018-10-11T18:05:15.308Z,12.30
2018-10-11T18:06:15.292Z,13.10
2018-10-11T18:07:15.296Z,12.70
2018-10-11T18:08:15.261Z,13.10
2018-10-11T18:09:15.257Z,12.60
2018-10-11T18:10:15.229Z,13.60
2018-10-11T18:11:15.220Z,12.70
2018-10-11T18:12:15.204Z,12.90
2018-10-11T18:13:15.203Z,13.50
2018-10-11T18:14:15.173Z,12.80
2018-10-11T18:15:15.157Z,12.50
2018-10-11T18:16:15.188Z,13.10
2018-10-11T18:17:15.131Z,12.10
2018-10-11T18:18:15.126Z,12.80
2018-10-11T18:19:15.095Z,12.50
2018-10-11T18:20:15.080Z,12.80
2018-10-11T18:21:15.081Z,12.60
2018-10-11T18:22:15.052Z,12.50
2018-10-11T18:23:15.075Z,12.70
2018-10-11T18:24:15.022Z,12.10
2018-10-11T18:25:15.007Z,12.00
2018-10-11T18:26:14.988Z,12.50
2018-10-11T18:27:14.983Z,12.70
2018-10-11T18:28:14.976Z,13.10
2018-10-11T18:29:14.964Z,12.10
2018-10-11T18:30:14.927Z,12.80
2018-10-11T18:31:14.919Z,12.50
2018-10-11T18:32:14.902Z,13.20
2018-10-11T18:33:14.900Z,12.40
2018-10-11T18:34:14.869Z,12.60
2018-10-11T18:35:14.854Z,12.80
